Time;durP1;ratioP1;P1;durP2;ratioP2;P2;SDS_P1;SDS_P2;PMS_P1;PMS_P2;Temp;Humidity;BMP_temperature;BMP_pressure;BME280_temperature;BME280_humidity;BME280_pressure;Samples;Min_cycle;Max_cycle;Signal;HPM_P1;HPM_P2
2023/07/26 00:08:25;;;;;;;;;;;17.70;99.90;;;;;;7327276;19;109232;-72
2023/07/26 00:10:52;;;;;;;;;;;17.70;99.90;;;;;;7338943;19;109458;-73
2023/07/26 00:13:19;;;;;;;;;;;17.70;99.90;;;;;;7335816;19;108710;-73
2023/07/26 00:15:46;;;;;;;;;;;17.70;99.90;;;;;;7336171;19;110693;-73
2023/07/26 00:18:13;;;;;;;;;;;17.70;99.90;;;;;;7331009;19;108995;-72
2023/07/26 00:20:41;;;;;;;;;;;17.70;99.90;;;;;;7342569;19;108685;-73
2023/07/26 00:23:08;;;;;;;;;;;17.70;99.90;;;;;;7335750;19;108936;-73
2023/07/26 00:25:35;;;;;;;;;;;17.70;99.90;;;;;;7339212;19;110345;-72
2023/07/26 00:28:02;;;;;;;;;;;17.60;99.90;;;;;;7335320;19;111912;-73
2023/07/26 00:30:29;;;;;;;;;;;17.70;99.90;;;;;;7334601;19;110571;-72
2023/07/26 00:32:56;;;;;;;;;;;17.60;99.90;;;;;;7338487;19;109347;-74
2023/07/26 00:35:25;;;;;;;;;;;17.60;99.90;;;;;;7334826;19;109960;-72
2023/07/26 00:37:53;;;;;;;;;;;17.60;99.90;;;;;;7337207;19;110207;-73
2023/07/26 00:40:20;;;;;;;;;;;17.60;99.90;;;;;;7340347;19;108598;-72
2023/07/26 00:42:47;;;;;;;;;;;17.60;99.90;;;;;;7347775;19;109065;-74
2023/07/26 00:45:14;;;;;;;;;;;17.60;99.90;;;;;;7340361;19;108870;-73
2023/07/26 00:47:41;;;;;;;;;;;17.60;99.90;;;;;;7336461;19;110140;-73
2023/07/26 00:50:09;;;;;;;;;;;17.60;99.90;;;;;;7337329;19;110049;-73
2023/07/26 00:52:37;;;;;;;;;;;17.50;99.90;;;;;;7332616;19;111109;-71
2023/07/26 00:55:05;;;;;;;;;;;17.60;99.90;;;;;;7336202;19;110517;-73
2023/07/26 00:57:33;;;;;;;;;;;17.50;99.90;;;;;;7336737;19;108386;-73
2023/07/26 01:00:01;;;;;;;;;;;17.50;99.90;;;;;;7335914;19;109593;-73
2023/07/26 01:02:28;;;;;;;;;;;17.50;99.90;;;;;;7334403;19;110465;-73
2023/07/26 01:04:55;;;;;;;;;;;17.50;99.90;;;;;;7338706;19;108913;-73
2023/07/26 01:07:35;;;;;;;;;;;17.50;99.90;;;;;;7332802;19;109813;-74
2023/07/26 01:10:02;;;;;;;;;;;17.50;99.90;;;;;;7335812;19;108694;-72
2023/07/26 01:12:33;;;;;;;;;;;17.40;99.90;;;;;;7332330;19;109069;-72
2023/07/26 01:15:07;;;;;;;;;;;17.40;99.90;;;;;;7335277;19;109233;-73
2023/07/26 01:17:34;;;;;;;;;;;17.30;99.90;;;;;;7334154;19;109413;-73
2023/07/26 01:20:02;;;;;;;;;;;17.30;99.90;;;;;;7332153;19;109627;-72
2023/07/26 01:22:29;;;;;;;;;;;17.20;99.90;;;;;;7331786;19;110598;-73
2023/07/26 01:24:56;;;;;;;;;;;17.20;99.90;;;;;;7338165;19;109769;-73
2023/07/26 01:27:24;;;;;;;;;;;17.10;99.90;;;;;;7333919;19;109089;-72
2023/07/26 01:29:55;;;;;;;;;;;17.10;99.90;;;;;;7329338;19;110174;-73
2023/07/26 01:32:24;;;;;;;;;;;17.00;99.90;;;;;;7331365;19;109072;-71
2023/07/26 01:34:51;;;;;;;;;;;17.00;99.90;;;;;;7334375;19;109148;-72
2023/07/26 01:37:19;;;;;;;;;;;16.90;99.90;;;;;;7331064;19;110652;-73
2023/07/26 01:39:47;;;;;;;;;;;16.90;99.90;;;;;;7332473;19;110164;-72
2023/07/26 01:42:14;;;;;;;;;;;16.90;99.90;;;;;;7332790;19;109144;-72
2023/07/26 01:44:42;;;;;;;;;;;16.80;99.90;;;;;;7334787;19;109614;-73
2023/07/26 01:47:09;;;;;;;;;;;16.70;99.90;;;;;;7338527;19;110324;-72
2023/07/26 01:49:40;;;;;;;;;;;16.60;99.90;;;;;;7333431;19;119892;-72
2023/07/26 01:52:07;;;;;;;;;;;16.60;99.90;;;;;;7330932;19;109492;-73
2023/07/26 01:54:34;;;;;;;;;;;16.50;99.90;;;;;;7333027;19;109110;-71
2023/07/26 01:57:01;;;;;;;;;;;16.50;99.90;;;;;;7332415;19;108620;-72
2023/07/26 01:59:28;;;;;;;;;;;16.50;99.90;;;;;;7333162;19;110344;-71
2023/07/26 02:01:55;;;;;;;;;;;16.50;99.90;;;;;;7329630;19;109648;-73
2023/07/26 02:04:24;;;;;;;;;;;16.40;99.90;;;;;;7331153;19;109349;-73
2023/07/26 02:06:51;;;;;;;;;;;16.40;99.90;;;;;;7332213;19;109240;-73
2023/07/26 02:09:19;;;;;;;;;;;16.40;99.90;;;;;;7335172;19;110169;-73
2023/07/26 02:11:46;;;;;;;;;;;16.30;99.90;;;;;;7337229;19;109071;-73
2023/07/26 02:14:15;;;;;;;;;;;16.30;99.90;;;;;;7331375;19;109125;-73
2023/07/26 02:16:42;;;;;;;;;;;16.30;99.90;;;;;;7332428;19;109384;-73
2023/07/26 02:19:09;;;;;;;;;;;16.30;99.90;;;;;;7330729;19;109655;-72
2023/07/26 02:21:36;;;;;;;;;;;16.20;99.90;;;;;;7331411;19;110269;-72
2023/07/26 02:24:03;;;;;;;;;;;16.20;99.90;;;;;;7333104;19;108533;-73
2023/07/26 02:26:30;;;;;;;;;;;16.20;99.90;;;;;;7330628;19;110331;-73
2023/07/26 02:28:57;;;;;;;;;;;16.20;99.90;;;;;;7333652;19;108930;-73
2023/07/26 02:31:24;;;;;;;;;;;16.10;99.90;;;;;;7335628;19;109893;-73
2023/07/26 02:33:52;;;;;;;;;;;16.10;99.90;;;;;;7332542;19;110946;-72
2023/07/26 02:36:19;;;;;;;;;;;16.10;99.90;;;;;;7332154;19;109657;-72
2023/07/26 02:38:46;;;;;;;;;;;16.10;99.90;;;;;;7329173;19;109039;-72
2023/07/26 02:41:13;;;;;;;;;;;16.10;99.90;;;;;;7332117;19;109292;-73
2023/07/26 02:43:40;;;;;;;;;;;16.10;99.90;;;;;;7334819;19;108803;-73
2023/07/26 02:46:08;;;;;;;;;;;16.10;99.90;;;;;;7327379;19;109336;-72
2023/07/26 02:48:35;;;;;;;;;;;16.10;99.90;;;;;;7324213;19;112789;-71
2023/07/26 02:51:03;;;;;;;;;;;16.00;99.90;;;;;;7330946;19;109003;-72
2023/07/26 02:53:30;;;;;;;;;;;16.00;99.90;;;;;;7338246;19;109520;-72
2023/07/26 02:55:57;;;;;;;;;;;16.00;99.90;;;;;;7337615;19;109132;-72
2023/07/26 02:58:24;;;;;;;;;;;16.00;99.90;;;;;;7336622;19;109022;-72
2023/07/26 03:00:52;;;;;;;;;;;16.00;99.90;;;;;;7334060;19;109091;-71
2023/07/26 03:03:19;;;;;;;;;;;15.90;99.90;;;;;;7333216;19;109106;-71
2023/07/26 03:05:46;;;;;;;;;;;15.90;99.90;;;;;;7339477;19;108943;-73
2023/07/26 03:08:14;;;;;;;;;;;15.80;99.90;;;;;;7334366;19;109291;-71
2023/07/26 03:10:42;;;;;;;;;;;15.70;99.90;;;;;;7339579;19;109981;-71
2023/07/26 03:13:09;;;;;;;;;;;15.50;99.90;;;;;;7341511;19;109502;-71
2023/07/26 03:15:38;;;;;;;;;;;15.40;99.90;;;;;;7336875;19;108939;-71
2023/07/26 03:18:05;;;;;;;;;;;15.30;99.90;;;;;;7337316;19;109907;-71
2023/07/26 03:20:33;;;;;;;;;;;15.20;99.90;;;;;;7339368;19;109523;-70
2023/07/26 03:23:00;;;;;;;;;;;15.10;99.90;;;;;;7337239;19;108579;-71
2023/07/26 03:25:27;;;;;;;;;;;15.00;99.90;;;;;;7338956;19;109347;-71
2023/07/26 03:27:55;;;;;;;;;;;15.00;99.90;;;;;;7341118;19;110116;-73
2023/07/26 03:30:22;;;;;;;;;;;14.90;99.90;;;;;;7335810;19;110286;-71
2023/07/26 03:32:49;;;;;;;;;;;14.80;99.90;;;;;;7335569;19;108685;-72
2023/07/26 03:35:17;;;;;;;;;;;14.80;99.90;;;;;;7338259;19;109921;-72
2023/07/26 03:37:44;;;;;;;;;;;14.90;99.90;;;;;;7339760;19;109062;-70
2023/07/26 03:40:11;;;;;;;;;;;14.80;99.90;;;;;;7334907;19;109294;-71
2023/07/26 03:42:38;;;;;;;;;;;14.90;99.90;;;;;;7338988;19;108694;-70
2023/07/26 03:45:06;;;;;;;;;;;14.90;99.90;;;;;;7338024;19;109116;-71
2023/07/26 03:47:33;;;;;;;;;;;14.90;99.90;;;;;;7335138;19;110586;-71
2023/07/26 03:50:00;;;;;;;;;;;14.90;99.90;;;;;;7333944;19;108501;-70
2023/07/26 03:52:28;;;;;;;;;;;14.80;99.90;;;;;;7336130;19;108410;-66
2023/07/26 03:54:55;;;;;;;;;;;14.80;99.90;;;;;;7337069;19;110577;-66
2023/07/26 03:57:23;;;;;;;;;;;14.70;99.90;;;;;;7340245;19;110225;-65
2023/07/26 03:59:50;;;;;;;;;;;14.60;99.90;;;;;;7336272;19;109261;-66
2023/07/26 04:02:17;;;;;;;;;;;14.60;99.90;;;;;;7334893;19;109237;-67
2023/07/26 04:04:44;;;;;;;;;;;14.60;99.90;;;;;;7335224;19;109277;-66
2023/07/26 04:07:11;;;;;;;;;;;14.60;99.90;;;;;;7335746;19;108946;-66
2023/07/26 04:09:39;;;;;;;;;;;14.70;99.90;;;;;;7334048;19;110662;-66
2023/07/26 04:12:06;;;;;;;;;;;14.70;99.90;;;;;;7324534;19;110541;-65
2023/07/26 04:14:34;;;;;;;;;;;14.70;99.90;;;;;;7337186;19;110210;-66
2023/07/26 04:17:01;;;;;;;;;;;14.70;99.90;;;;;;7338320;19;108998;-66
2023/07/26 04:19:29;;;;;;;;;;;14.80;99.90;;;;;;7338383;19;108144;-66
2023/07/26 04:21:56;;;;;;;;;;;14.80;99.90;;;;;;7338665;19;108757;-65
2023/07/26 04:24:23;;;;;;;;;;;14.80;99.90;;;;;;7336396;19;109671;-66
2023/07/26 04:26:52;;;;;;;;;;;14.80;99.90;;;;;;7336773;19;108942;-65
2023/07/26 04:29:19;;;;;;;;;;;14.80;99.90;;;;;;7333906;19;108525;-65
2023/07/26 04:31:46;;;;;;;;;;;14.80;99.90;;;;;;7335278;19;109126;-66
2023/07/26 04:34:14;;;;;;;;;;;14.80;99.90;;;;;;7333927;19;110963;-65
2023/07/26 04:36:41;;;;;;;;;;;14.90;99.90;;;;;;7334276;19;109752;-66
2023/07/26 04:39:09;;;;;;;;;;;14.90;99.90;;;;;;7336617;19;109503;-66
2023/07/26 04:41:36;;;;;;;;;;;15.00;99.90;;;;;;7341224;19;109701;-66
2023/07/26 04:44:03;;;;;;;;;;;14.90;99.90;;;;;;7335331;19;109357;-66
2023/07/26 04:46:30;;;;;;;;;;;15.00;99.90;;;;;;7332707;19;109261;-66
2023/07/26 04:48:57;;;;;;;;;;;15.00;99.90;;;;;;7330758;19;113543;-65
2023/07/26 04:51:24;;;;;;;;;;;15.00;99.90;;;;;;7339084;19;108926;-65
2023/07/26 04:53:51;;;;;;;;;;;15.10;99.90;;;;;;7331025;19;110901;-66
2023/07/26 04:56:19;;;;;;;;;;;15.10;99.90;;;;;;7339153;19;108834;-66
2023/07/26 04:58:46;;;;;;;;;;;15.10;99.90;;;;;;7333270;19;110002;-66
2023/07/26 05:01:13;;;;;;;;;;;15.10;99.90;;;;;;7331204;19;108788;-66
2023/07/26 05:03:40;;;;;;;;;;;15.10;99.90;;;;;;7339716;19;108619;-65
2023/07/26 05:06:09;;;;;;;;;;;15.10;99.90;;;;;;7336052;19;109124;-66
2023/07/26 05:08:37;;;;;;;;;;;15.10;99.90;;;;;;7336959;19;109014;-66
2023/07/26 05:11:05;;;;;;;;;;;15.20;99.90;;;;;;7332626;19;109513;-66
2023/07/26 05:13:32;;;;;;;;;;;15.20;99.90;;;;;;7333540;19;109726;-66
2023/07/26 05:15:59;;;;;;;;;;;15.20;99.90;;;;;;7334673;19;108890;-66
2023/07/26 05:18:26;;;;;;;;;;;15.20;99.90;;;;;;7336749;19;109107;-66
2023/07/26 05:20:53;;;;;;;;;;;15.20;99.90;;;;;;7333389;19;109923;-64
2023/07/26 05:23:20;;;;;;;;;;;15.30;99.90;;;;;;7340562;19;108292;-66
2023/07/26 05:25:47;;;;;;;;;;;15.40;99.90;;;;;;7332926;19;109106;-66
2023/07/26 05:28:14;;;;;;;;;;;15.40;99.90;;;;;;7337561;19;108813;-66
2023/07/26 05:30:42;;;;;;;;;;;15.50;99.90;;;;;;7334302;19;109419;-66
2023/07/26 05:33:09;;;;;;;;;;;15.50;99.90;;;;;;7333908;19;109985;-65
2023/07/26 05:35:37;;;;;;;;;;;15.60;99.90;;;;;;7334866;19;108968;-65
2023/07/26 05:38:05;;;;;;;;;;;15.60;99.90;;;;;;7332503;19;109129;-66
2023/07/26 05:40:32;;;;;;;;;;;15.70;99.90;;;;;;7335365;19;109778;-66
2023/07/26 05:42:59;;;;;;;;;;;15.80;99.90;;;;;;7333347;19;111190;-66
2023/07/26 05:45:27;;;;;;;;;;;15.90;99.90;;;;;;7339849;19;109805;-65
2023/07/26 05:47:54;;;;;;;;;;;16.00;99.90;;;;;;7336559;19;108833;-65
2023/07/26 05:50:21;;;;;;;;;;;16.10;99.90;;;;;;7333085;19;108855;-66
2023/07/26 05:52:51;;;;;;;;;;;16.20;99.90;;;;;;7334325;19;109571;-64
2023/07/26 05:55:18;;;;;;;;;;;16.30;99.90;;;;;;7332706;19;108846;-67
2023/07/26 05:57:46;;;;;;;;;;;16.40;99.90;;;;;;7335134;19;109145;-64
2023/07/26 06:00:13;;;;;;;;;;;16.50;99.90;;;;;;7334392;19;109626;-64
2023/07/26 06:02:41;;;;;;;;;;;16.60;99.90;;;;;;7334316;19;109278;-64
2023/07/26 06:05:08;;;;;;;;;;;16.60;99.90;;;;;;7335448;19;110096;-64
2023/07/26 06:07:36;;;;;;;;;;;16.60;99.90;;;;;;7340283;19;109225;-64
2023/07/26 06:10:03;;;;;;;;;;;16.60;99.90;;;;;;7333223;19;108881;-64
2023/07/26 06:12:31;;;;;;;;;;;16.60;99.90;;;;;;7331861;19;109958;-62
2023/07/26 06:14:58;;;;;;;;;;;16.60;99.90;;;;;;7333699;19;110376;-62
2023/07/26 06:17:26;;;;;;;;;;;16.70;99.90;;;;;;7332777;19;109080;-63
2023/07/26 06:19:55;;;;;;;;;;;16.70;99.90;;;;;;7320454;19;110921;-62
2023/07/26 06:22:22;;;;;;;;;;;16.70;99.90;;;;;;7334460;19;108711;-63
2023/07/26 06:24:49;;;;;;;;;;;16.70;99.90;;;;;;7334692;19;108361;-62
2023/07/26 06:27:28;;;;;;;;;;;16.70;99.90;;;;;;7338791;19;109001;-62
2023/07/26 06:29:55;;;;;;;;;;;16.70;99.90;;;;;;7345304;19;109343;-65
2023/07/26 06:32:22;;;;;;;;;;;16.70;99.90;;;;;;7341186;19;110467;-66
2023/07/26 06:34:49;;;;;;;;;;;16.70;99.90;;;;;;7338347;19;109979;-69
2023/07/26 06:37:16;;;;;;;;;;;16.80;99.90;;;;;;7341294;19;108611;-65
2023/07/26 06:39:43;;;;;;;;;;;16.90;99.90;;;;;;7336513;19;110914;-65
2023/07/26 06:42:11;;;;;;;;;;;17.00;99.90;;;;;;7340266;19;108799;-65
2023/07/26 06:47:18;;;;;;;;;;;17.20;99.90;;;;;;7378226;19;110164;-85
2023/07/26 06:49:45;;;;;;;;;;;17.40;99.90;;;;;;7379548;19;107893;-88
2023/07/26 06:52:12;;;;;;;;;;;17.60;99.90;;;;;;7381271;19;108696;-87
2023/07/26 06:54:40;;;;;;;;;;;17.70;99.90;;;;;;7378942;19;108087;-88
2023/07/26 06:57:07;;;;;;;;;;;17.70;99.90;;;;;;7381415;19;109144;-87
2023/07/26 06:59:35;;;;;;;;;;;17.80;99.90;;;;;;7356723;19;109022;-88
2023/07/26 07:04:34;;;;;;;;;;;17.90;99.90;;;;;;7346054;19;108946;-87
2023/07/26 07:07:01;;;;;;;;;;;18.10;99.90;;;;;;7344279;19;110470;-88
2023/07/26 07:09:29;;;;;;;;;;;18.30;99.90;;;;;;7344722;19;109448;-85
2023/07/26 07:11:56;;;;;;;;;;;18.30;99.90;;;;;;7345770;19;111978;-86
2023/07/26 07:14:23;;;;;;;;;;;18.40;99.90;;;;;;7347661;19;109467;-86
2023/07/26 07:16:50;;;;;;;;;;;18.50;99.90;;;;;;7342410;19;108754;-86
2023/07/26 07:19:20;;;;;;;;;;;18.50;99.90;;;;;;7338297;19;109185;-85
2023/07/26 07:21:47;;;;;;;;;;;18.50;99.90;;;;;;7339897;19;108478;-86
2023/07/26 07:24:15;;;;;;;;;;;18.60;99.90;;;;;;7339546;19;109332;-85
2023/07/26 07:26:42;;;;;;;;;;;18.60;99.90;;;;;;7340669;19;110294;-87
2023/07/26 07:29:09;;;;;;;;;;;18.70;99.90;;;;;;7339832;19;108677;-84
2023/07/26 07:39:54;;;;;;;;;;;19.00;99.90;;;;;;7336166;19;108827;-70
2023/07/26 07:42:21;;;;;;;;;;;19.00;99.90;;;;;;7336930;19;109116;-70
2023/07/26 07:44:49;;;;;;;;;;;19.10;99.90;;;;;;7336936;19;108416;-70
2023/07/26 07:47:16;;;;;;;;;;;19.10;99.90;;;;;;7334699;19;109669;-70
2023/07/26 07:49:43;;;;;;;;;;;19.20;99.90;;;;;;7337596;19;109017;-70
2023/07/26 07:52:10;;;;;;;;;;;19.30;99.90;;;;;;7336278;19;110701;-69
2023/07/26 07:54:37;;;;;;;;;;;19.30;99.90;;;;;;7336990;19;109802;-70
2023/07/26 07:57:04;;;;;;;;;;;19.30;99.90;;;;;;7343248;19;108767;-70
2023/07/26 07:59:32;;;;;;;;;;;19.30;99.90;;;;;;7334034;19;110083;-70
2023/07/26 08:01:59;;;;;;;;;;;19.30;99.90;;;;;;7337567;19;109667;-69
2023/07/26 08:04:26;;;;;;;;;;;19.30;99.90;;;;;;7337443;19;108463;-67
2023/07/26 08:06:53;;;;;;;;;;;19.30;99.90;;;;;;7337936;19;110056;-69
2023/07/26 08:09:24;;;;;;;;;;;19.30;99.90;;;;;;7335762;19;109956;-72
2023/07/26 08:11:51;;;;;;;;;;;19.30;99.90;;;;;;7339560;19;108517;-69
2023/07/26 08:14:18;;;;;;;;;;;19.40;99.90;;;;;;7333177;19;109264;-70
2023/07/26 08:16:46;;;;;;;;;;;19.50;99.90;;;;;;7338092;19;108671;-70
2023/07/26 08:19:13;;;;;;;;;;;19.70;99.90;;;;;;7337133;19;109127;-70
2023/07/26 08:21:40;;;;;;;;;;;19.80;99.90;;;;;;7337501;19;109210;-70
2023/07/26 08:24:07;;;;;;;;;;;20.00;99.90;;;;;;7333708;19;108390;-69
2023/07/26 08:26:35;;;;;;;;;;;20.10;99.90;;;;;;7337377;19;109182;-70
2023/07/26 08:29:02;;;;;;;;;;;20.10;99.90;;;;;;7341424;19;109136;-70
2023/07/26 08:31:29;;;;;;;;;;;20.30;99.90;;;;;;7335869;19;108702;-70
2023/07/26 08:33:56;;;;;;;;;;;20.30;99.90;;;;;;7336510;19;109153;-70
2023/07/26 08:36:24;;;;;;;;;;;20.50;99.90;;;;;;7333132;19;110736;-70
2023/07/26 08:38:51;;;;;;;;;;;20.50;99.90;;;;;;7331749;19;109432;-69
2023/07/26 08:41:18;;;;;;;;;;;20.70;99.90;;;;;;7338757;19;114325;-70
2023/07/26 08:43:46;;;;;;;;;;;20.80;99.90;;;;;;7336230;19;108814;-70
2023/07/26 08:46:14;;;;;;;;;;;20.90;99.90;;;;;;7334721;19;109845;-70
2023/07/26 08:48:42;;;;;;;;;;;20.80;99.90;;;;;;7329590;19;109568;-69
2023/07/26 08:51:09;;;;;;;;;;;20.70;99.90;;;;;;7338740;19;108555;-69
2023/07/26 08:53:37;;;;;;;;;;;20.70;99.90;;;;;;7335192;19;109685;-70
2023/07/26 08:56:05;;;;;;;;;;;20.80;99.90;;;;;;7334604;19;109355;-69
2023/07/26 08:58:32;;;;;;;;;;;20.80;99.90;;;;;;7334939;19;108647;-70
2023/07/26 09:00:59;;;;;;;;;;;20.80;99.90;;;;;;7331832;19;109650;-69
2023/07/26 09:03:27;;;;;;;;;;;20.80;99.90;;;;;;7343621;19;108917;-70
2023/07/26 09:06:08;;;;;;;;;;;20.90;99.90;;;;;;7334926;19;109519;-69
2023/07/26 09:08:35;;;;;;;;;;;21.00;99.90;;;;;;7335457;19;109456;-68
2023/07/26 09:11:23;;;;;;;;;;;21.10;99.90;;;;;;7334899;19;109233;-71
2023/07/26 09:13:58;;;;;;;;;;;21.20;99.90;;;;;;7337673;19;110172;-68
2023/07/26 09:16:29;;;;;;;;;;;21.30;99.90;;;;;;7334081;19;108616;-69
2023/07/26 09:18:56;;;;;;;;;;;21.50;99.90;;;;;;7336774;19;109104;-69
2023/07/26 09:21:25;;;;;;;;;;;21.60;99.90;;;;;;7335581;19;110084;-67
2023/07/26 09:23:52;;;;;;;;;;;21.70;99.90;;;;;;7335991;19;108778;-68
2023/07/26 09:26:40;;;;;;;;;;;21.80;99.90;;;;;;7339478;19;108611;-68
2023/07/26 09:29:08;;;;;;;;;;;21.80;99.90;;;;;;7337927;19;108593;-68
2023/07/26 09:31:36;;;;;;;;;;;21.90;99.90;;;;;;7337103;19;109188;-68
2023/07/26 09:34:04;;;;;;;;;;;22.10;99.90;;;;;;7333097;19;109235;-68
2023/07/26 09:36:42;;;;;;;;;;;22.30;99.90;;;;;;7333493;19;110506;-68
2023/07/26 09:39:09;;;;;;;;;;;22.40;99.90;;;;;;7332521;19;109021;-68
2023/07/26 09:41:37;;;;;;;;;;;22.40;99.90;;;;;;7335161;19;109550;-68
2023/07/26 09:44:05;;;;;;;;;;;22.40;99.90;;;;;;7335139;19;110133;-67
2023/07/26 09:46:46;;;;;;;;;;;22.30;99.90;;;;;;7340081;19;109386;-68
2023/07/26 09:49:13;;;;;;;;;;;22.10;99.90;;;;;;7333471;19;110661;-69
2023/07/26 09:51:53;;;;;;;;;;;22.10;99.90;;;;;;7333982;19;110160;-69
2023/07/26 09:54:28;;;;;;;;;;;22.10;99.90;;;;;;7333738;19;109513;-69
2023/07/26 09:57:01;;;;;;;;;;;22.20;99.90;;;;;;7335567;19;108870;-68
2023/07/26 09:59:29;;;;;;;;;;;22.30;99.90;;;;;;7332576;19;108884;-69
2023/07/26 10:01:59;;;;;;;;;;;22.50;99.90;;;;;;7334867;19;109295;-69
2023/07/26 10:04:46;;;;;;;;;;;22.40;99.90;;;;;;7332786;19;109771;-69
2023/07/26 10:07:14;;;;;;;;;;;22.20;99.90;;;;;;7331768;19;109530;-69
2023/07/26 10:09:45;;;;;;;;;;;22.30;99.90;;;;;;7339164;19;110877;-68
2023/07/26 10:12:13;;;;;;;;;;;22.40;99.90;;;;;;7331639;19;110598;-69
2023/07/26 10:14:41;;;;;;;;;;;22.60;99.90;;;;;;7330181;19;110200;-68
2023/07/26 10:17:09;;;;;;;;;;;22.70;99.90;;;;;;7330053;19;108661;-69
2023/07/26 10:19:38;;;;;;;;;;;22.80;99.90;;;;;;7329917;19;108859;-69
2023/07/26 10:22:06;;;;;;;;;;;22.80;99.90;;;;;;7330530;19;108868;-69
2023/07/26 10:24:36;;;;;;;;;;;22.80;99.90;;;;;;7330894;19;109871;-69
2023/07/26 10:27:04;;;;;;;;;;;22.60;99.90;;;;;;7333193;19;108515;-68
2023/07/26 10:29:32;;;;;;;;;;;22.50;99.90;;;;;;7329037;19;109807;-68
2023/07/26 10:32:03;;;;;;;;;;;22.40;99.90;;;;;;7336493;19;108746;-69
2023/07/26 10:34:30;;;;;;;;;;;22.20;99.90;;;;;;7327359;19;110117;-68
2023/07/26 10:36:58;;;;;;;;;;;22.10;99.90;;;;;;7330717;19;108928;-68
2023/07/26 10:39:34;;;;;;;;;;;22.00;99.90;;;;;;7330322;19;109973;-68
2023/07/26 10:42:04;;;;;;;;;;;21.90;99.90;;;;;;7331299;19;108934;-69
2023/07/26 10:44:39;;;;;;;;;;;21.80;99.90;;;;;;7331063;19;109914;-69
2023/07/26 10:47:06;;;;;;;;;;;21.80;99.90;;;;;;7331465;19;109409;-69
2023/07/26 10:49:33;;;;;;;;;;;21.90;99.90;;;;;;7332173;19;114041;-69
2023/07/26 10:52:04;;;;;;;;;;;22.00;99.90;;;;;;7333909;19;108860;-69
2023/07/26 10:54:31;;;;;;;;;;;22.20;99.90;;;;;;7338438;19;108509;-69
2023/07/26 10:57:20;;;;;;;;;;;22.30;99.90;;;;;;7334422;19;112185;-70
2023/07/26 10:59:50;;;;;;;;;;;22.40;99.90;;;;;;7330525;19;108693;-69
2023/07/26 11:02:35;;;;;;;;;;;22.50;99.90;;;;;;7328065;19;109164;-69
2023/07/26 11:05:02;;;;;;;;;;;22.70;99.90;;;;;;7329843;19;109039;-69
2023/07/26 11:07:48;;;;;;;;;;;22.90;99.90;;;;;;7328575;19;110071;-68
2023/07/26 11:10:16;;;;;;;;;;;22.90;99.90;;;;;;7328732;19;109133;-69
2023/07/26 11:12:43;;;;;;;;;;;22.80;99.90;;;;;;7334809;19;109296;-69
2023/07/26 11:15:10;;;;;;;;;;;22.80;99.90;;;;;;7333933;19;109234;-69
2023/07/26 11:17:58;;;;;;;;;;;22.70;99.90;;;;;;7342577;19;110794;-69
2023/07/26 11:20:25;;;;;;;;;;;22.50;99.90;;;;;;7335959;19;108964;-69
2023/07/26 11:22:52;;;;;;;;;;;22.50;99.90;;;;;;7338253;19;109223;-69
2023/07/26 11:25:20;;;;;;;;;;;22.50;99.90;;;;;;7335967;19;109040;-69
2023/07/26 11:27:48;;;;;;;;;;;22.40;99.90;;;;;;7337084;19;109355;-69
2023/07/26 11:30:16;;;;;;;;;;;22.40;99.90;;;;;;7334668;19;109588;-69
2023/07/26 11:32:44;;;;;;;;;;;22.40;99.90;;;;;;7338464;19;110146;-69
2023/07/26 11:35:13;;;;;;;;;;;22.50;99.90;;;;;;7335979;19;109527;-69
2023/07/26 11:37:50;;;;;;;;;;;22.70;99.90;;;;;;7337521;19;111220;-69
2023/07/26 11:40:17;;;;;;;;;;;22.90;99.90;;;;;;7341567;19;110030;-69
2023/07/26 11:42:44;;;;;;;;;;;23.10;99.80;;;;;;7337500;19;109423;-68
2023/07/26 11:45:12;;;;;;;;;;;23.30;99.90;;;;;;7338867;19;108535;-69
2023/07/26 11:47:40;;;;;;;;;;;23.40;99.50;;;;;;7335820;19;110204;-68
2023/07/26 11:50:07;;;;;;;;;;;23.50;99.90;;;;;;7333672;19;110206;-72
2023/07/26 11:52:35;;;;;;;;;;;23.70;99.40;;;;;;7335844;19;109208;-70
2023/07/26 11:55:03;;;;;;;;;;;23.80;98.10;;;;;;7334800;19;109430;-69
2023/07/26 11:57:31;;;;;;;;;;;23.90;98.80;;;;;;7336839;19;109715;-69
2023/07/26 11:59:59;;;;;;;;;;;24.00;98.60;;;;;;7344487;19;109731;-69
2023/07/26 12:02:27;;;;;;;;;;;24.10;98.10;;;;;;7334635;19;110208;-69
2023/07/26 12:05:13;;;;;;;;;;;24.30;97.90;;;;;;7333776;19;108462;-69
2023/07/26 12:07:47;;;;;;;;;;;24.40;97.70;;;;;;7337919;19;108753;-69
2023/07/26 12:10:19;;;;;;;;;;;24.30;97.40;;;;;;7334907;19;109134;-68
2023/07/26 12:12:46;;;;;;;;;;;24.20;96.60;;;;;;7335791;19;108966;-69
2023/07/26 12:15:13;;;;;;;;;;;24.00;97.10;;;;;;7340589;19;109110;-69
2023/07/26 12:17:53;;;;;;;;;;;24.10;96.00;;;;;;7334416;19;110475;-69
2023/07/26 12:20:22;;;;;;;;;;;24.10;96.10;;;;;;7338084;19;108427;-68
2023/07/26 12:23:05;;;;;;;;;;;24.20;97.00;;;;;;7340688;19;111655;-69
2023/07/26 12:25:38;;;;;;;;;;;24.40;96.30;;;;;;7335730;19;108955;-70
2023/07/26 12:28:06;;;;;;;;;;;24.50;96.30;;;;;;7338036;19;109678;-68
2023/07/26 12:30:34;;;;;;;;;;;24.70;96.70;;;;;;7333695;19;109250;-69
2023/07/26 12:33:13;;;;;;;;;;;24.80;96.70;;;;;;7337963;19;108497;-68
2023/07/26 12:35:44;;;;;;;;;;;24.80;95.00;;;;;;7332644;19;110140;-69
2023/07/26 12:38:12;;;;;;;;;;;24.70;96.00;;;;;;7334066;19;109402;-69
2023/07/26 12:40:39;;;;;;;;;;;24.60;95.70;;;;;;7337156;19;108809;-69
2023/07/26 12:43:26;;;;;;;;;;;24.60;95.80;;;;;;7332929;19;108293;-69
2023/07/26 12:45:54;;;;;;;;;;;24.70;95.40;;;;;;7342751;19;109589;-69
2023/07/26 12:48:22;;;;;;;;;;;24.60;95.00;;;;;;7336045;19;109196;-69
2023/07/26 12:50:53;;;;;;;;;;;24.50;94.60;;;;;;7331068;19;110339;-69
2023/07/26 12:53:21;;;;;;;;;;;24.40;94.70;;;;;;7334842;19;108642;-69
2023/07/26 12:55:48;;;;;;;;;;;24.40;94.90;;;;;;7334845;19;110481;-69
2023/07/26 12:58:16;;;;;;;;;;;24.20;94.60;;;;;;7334447;19;109159;-69
2023/07/26 13:00:44;;;;;;;;;;;24.10;94.70;;;;;;7334798;19;108924;-69
2023/07/26 13:03:11;;;;;;;;;;;24.30;96.50;;;;;;7333445;19;108751;-69
2023/07/26 13:05:38;;;;;;;;;;;24.30;95.60;;;;;;7332812;19;109403;-69
2023/07/26 13:08:05;;;;;;;;;;;24.30;95.20;;;;;;7340229;19;108462;-69
2023/07/26 13:10:32;;;;;;;;;;;24.40;96.00;;;;;;7334392;19;109252;-69
2023/07/26 13:12:59;;;;;;;;;;;24.50;96.00;;;;;;7333932;19;108526;-69
2023/07/26 13:15:26;;;;;;;;;;;24.70;95.80;;;;;;7333752;19;109422;-68
2023/07/26 13:17:53;;;;;;;;;;;24.70;95.40;;;;;;7331758;19;109107;-68
2023/07/26 13:20:20;;;;;;;;;;;24.70;94.50;;;;;;7332360;19;110103;-68
2023/07/26 13:22:48;;;;;;;;;;;24.60;92.90;;;;;;7328835;19;109477;-69
2023/07/26 13:25:15;;;;;;;;;;;24.50;94.30;;;;;;7331562;19;109108;-69
2023/07/26 13:27:42;;;;;;;;;;;24.40;93.20;;;;;;7333107;19;109369;-69
2023/07/26 13:30:10;;;;;;;;;;;24.30;94.50;;;;;;7335830;19;108789;-68
2023/07/26 13:32:37;;;;;;;;;;;24.40;94.90;;;;;;7332608;19;108584;-68
2023/07/26 13:35:05;;;;;;;;;;;24.50;95.10;;;;;;7333457;19;109522;-69
2023/07/26 13:37:34;;;;;;;;;;;24.70;95.60;;;;;;7331851;19;109784;-68
2023/07/26 13:40:01;;;;;;;;;;;24.90;95.50;;;;;;7334439;19;109481;-68
2023/07/26 13:42:32;;;;;;;;;;;25.00;94.80;;;;;;7335084;19;108808;-69
2023/07/26 13:45:01;;;;;;;;;;;25.10;94.60;;;;;;7333283;19;109091;-69
2023/07/26 13:47:30;;;;;;;;;;;25.30;92.70;;;;;;7332780;19;111598;-69
2023/07/26 13:49:57;;;;;;;;;;;25.40;93.40;;;;;;7341366;19;109662;-69
2023/07/26 13:52:25;;;;;;;;;;;25.50;92.80;;;;;;7333815;19;111343;-69
2023/07/26 13:54:52;;;;;;;;;;;25.70;93.80;;;;;;7336910;19;109663;-68
2023/07/26 13:57:19;;;;;;;;;;;25.80;93.20;;;;;;7335416;19;111369;-68
2023/07/26 13:59:47;;;;;;;;;;;25.80;93.80;;;;;;7337645;19;108887;-68
2023/07/26 14:02:15;;;;;;;;;;;25.70;93.80;;;;;;7338825;19;109141;-68
2023/07/26 14:04:42;;;;;;;;;;;25.70;93.50;;;;;;7340502;19;110112;-68
2023/07/26 14:07:09;;;;;;;;;;;25.70;93.60;;;;;;7341547;19;108486;-67
2023/07/26 14:09:39;;;;;;;;;;;25.70;94.00;;;;;;7340963;19;108749;-67
2023/07/26 14:12:07;;;;;;;;;;;25.90;94.20;;;;;;7347778;19;109437;-67
2023/07/26 14:14:35;;;;;;;;;;;26.00;91.40;;;;;;7345674;19;108651;-67
2023/07/26 14:17:02;;;;;;;;;;;25.90;93.00;;;;;;7338763;19;109274;-69
2023/07/26 14:19:30;;;;;;;;;;;26.00;93.40;;;;;;7338907;19;109613;-69
2023/07/26 14:21:57;;;;;;;;;;;26.20;93.80;;;;;;7335524;19;108544;-69
2023/07/26 14:24:25;;;;;;;;;;;26.40;92.70;;;;;;7332197;19;109099;-69
2023/07/26 14:26:52;;;;;;;;;;;26.50;93.40;;;;;;7334164;19;108680;-69
2023/07/26 14:29:19;;;;;;;;;;;26.60;92.50;;;;;;7333813;19;108866;-70
2023/07/26 14:31:48;;;;;;;;;;;26.80;92.80;;;;;;7332570;19;110216;-70